• Join FlightAware (Why Join?)
  • Login
  • US Flag 
11:32PM EDT


 

Airport Tracker/Info


-or-


 

Live Flight TrackerFlight Track Log ✈ N319EE ✈ 03-Oct-2013 ✈ KFRG - KPWM

Flight Track Log - Related Links

Times and Time Zones

All times are in EDT time to prevent confusion due to time zone crossing. See the N319EE flight status page for this flight to view local times or setup timezone preferences in your user account.

Time Position Orientation Groundspeed Altitude Reporting Facility
EDT Latitude Longitude Course Direction KTS MPH feet Rate Location/Type
05:46PM 40.6500 -73.4833 229° Southwest 170 196 4,200  Level New York TRACON
05:48PM 40.6689 -73.5867 284° West 164 189 7,800 1,680 Climbing Boston Center
05:49PM 40.7083 -73.6228 325° Northwest 156 180 8,900 540 Climbing Boston Center
05:50PM 40.7753 -73.5883 21° North 173 199 8,900  Level Boston Center
05:51PM 40.8322 -73.5125 45° Northeast 239 275 8,900 660 Level Boston Center
05:52PM 40.8892 -73.4478 41° Northeast 255 293 10,200 1,560 Climbing Boston Center
05:53PM 40.9458 -73.4128 25° Northeast 242 278 12,000 1,740 Climbing Boston Center
05:54PM 41.0022 -73.3806 23° Northeast 226 260 13,800 1,800 Climbing Boston Center
05:55PM 41.0547 -73.3428 28° Northeast 201 231 15,700 1,560 Climbing Boston Center
05:56PM 41.1092 -73.3133 22° Northeast 206 237 17,000 660 Climbing Boston Center
05:57PM 41.1781 -73.2728 24° Northeast 226 260 17,000  Level Boston Center
05:58PM 41.2514 -73.2269 25° Northeast 261 300 17,000  Level Boston Center
05:59PM 41.3289 -73.1836 23° Northeast 285 328 17,000  Level Boston Center
06:00PM 41.4061 -73.1375 24° Northeast 301 346 17,000  Level Boston Center
06:01PM 41.4794 -73.0939 24° Northeast 296 341 17,000  Level Boston Center
06:02PM 41.5567 -73.0475 24° Northeast 296 341 17,000  Level Boston Center
06:03PM 41.6300 -73.0039 24° Northeast 296 341 17,000  Level Boston Center
06:04PM 41.7031 -72.9600 24° Northeast 291 335 17,000  Level Boston Center
06:05PM 41.7783 -72.9133 25° Northeast 291 335 17,000  Level Boston Center
06:06PM 41.8453 -72.8747 23° Northeast 291 335 17,000  Level Boston Center
06:07PM 41.9183 -72.8306 24° Northeast 291 335 17,000  Level Boston Center
06:08PM 41.9914 -72.7864 24° Northeast 291 335 17,000  Level Boston Center
06:09PM 42.0728 -72.7339 26° Northeast 291 335 17,000  Level Boston Center
06:10PM 42.1397 -72.6947 23° Northeast 291 335 17,000  Level Boston Center
06:11PM 42.2147 -72.6475 25° Northeast 296 341 17,000  Level Boston Center
06:12PM 42.2981 -72.5972 24° Northeast 296 341 17,000  Level Boston Center
06:13PM 42.3650 -72.5581 23° Northeast 296 341 17,000  Level Boston Center
06:14PM 42.4400 -72.5075 26° Northeast 296 341 17,000  Level Boston Center
06:15PM 42.5025 -72.4261 44° Northeast 302 348 17,000  Level Boston Center
06:16PM 42.5650 -72.3442 44° Northeast 302 348 17,000  Level Boston Center
06:17PM 42.6317 -72.2539 45° Northeast 302 348 17,000  Level Boston Center
06:18PM 42.6919 -72.1717 45° Northeast 302 348 17,000  Level Boston Center
06:19PM 42.7542 -72.0922 43° Northeast 302 348 17,000  Level Boston Center
06:20PM 42.8164 -72.0128 43° Northeast 302 348 17,000  Level Boston Center
06:21PM 42.8806 -71.9272 44° Northeast 302 348 17,000  Level Boston Center
06:22PM 42.9408 -71.8475 44° Northeast 302 348 17,000  Level Boston Center
06:23PM 43.0028 -71.7672 43° Northeast 302 348 17,000  Level Boston Center
06:24PM 43.0647 -71.6814 45° Northeast 302 348 17,000  Level Boston Center
06:25PM 43.1267 -71.6008 43° Northeast 302 348 17,000  Level Boston Center
06:26PM 43.1886 -71.5175 44° Northeast 302 348 17,000 -60 Level Boston Center
06:27PM 43.2483 -71.4367 45° Northeast 302 348 16,900 -900 Descending Boston Center
06:28PM 43.3061 -71.3558 45° Northeast 307 353 15,300 -1,740 Descending Boston Center
06:29PM 43.3719 -71.2692 44° Northeast 320 368 13,500 -1,860 Descending Boston Center
06:30PM 43.4417 -71.1733 45° Northeast 320 368 11,700 -1,260 Descending Boston Center
06:31PM 43.4803 -71.0839 59° Northeast 309 356 11,000 -780 Descending Boston Center
06:32PM 43.5100 -70.9686 70° East 288 331 10,200 -1,080 Descending Boston Center
06:33PM 43.5358 -70.8678 71° East 300 345 8,900 -1,440 Descending Boston Center
06:34PM 43.5342 -70.7475 91° East 300 345 7,400 -1,560 Descending Boston Center
06:35PM 43.5300 -70.6244 93° East 295 339 5,900 -1,620 Descending Boston Center
06:36PM 43.5494 -70.5381 73° East 270 311 4,200 -1,860 Descending Boston Center
06:37PM 43.5750 -70.4397 70° East 248 285 2,300 -1,320 Descending Boston Center
06:38PM 43.5944 -70.3675 70° East 227 261 1,700 -600 Descending Boston Center
06:39PM 43.6056 -70.2925 78° East 188 216 1,200 -540 Descending Boston Center
06:40PM 43.6344 -70.2742 25° Northeast 133 153 700 -540 Descending Boston Center
06:41PM 43.6575 -70.2850 341° North 81 93 200 5,280 Descending Boston Center
06:42PM 43.6783 -70.2756 18° North 81 93 11,000 5,460 Climbing Boston Center
06:43PM 43.6989 -70.2692 13° North 81 93 11,000  Level Boston Center
06:45PM 43.6456 -70.3086 216° Southwest  Level Estimated
06:52PM 43.6456 -70.3086 216° Southwest  Level Estimated
06:53PM 43.6456 -70.3086 216° Southwest  Level Estimated
06:54PM 43.6456 -70.3086 216° Southwest  Level Estimated
06:55PM 43.6456 -70.3086 216° Southwest  Level Estimated